Andrews Bridge, Pennsylvania
Current Conditions -  °F | °C
As of 1:35 AM on Thursday 23 Oct 2014 (Local Time) from KMQS Reporting Station
Light Rain Light Rain  
Wind Chill: 10°   Ceiling: 7000
Heat Index: 10°   Visibility: 10mi
Dew Point:   Wind: 17mph
Humidity: 87%   Direction: 340°NNW
Pressure: 29.81"   Gusts: 23mph
Location:  39.9118°N, 76.0265°W
Report Text: KMQS 230535Z AUTO 34015G20KT 10SM -RA FEW023 SCT041 BKN070 10/08 A2981 RMK AO2
Loading
Personal Weather Stations






























Interactive Weather Map
Tropical Storm Tracking
New forecast layout! Learn more

10-Day Weather Forecast

Advertisements
Track Severe Weather on mobile